Time;durP1;ratioP1;P1;durP2;ratioP2;P2;SDS_P1;SDS_P2;PMS_P1;PMS_P2;Temp;Humidity;BMP_temperature;BMP_pressure;BME280_temperature;BME280_humidity;BME280_pressure;Samples;Min_cycle;Max_cycle;Signal;HPM_P1;HPM_P2
2024/01/05 00:01:10;0.00;0.00;0.62;0.00;0.00;0.62;1.90;1.50;;;20.90;25.80;;;;;;2252771;61;20386;-59
2024/01/05 00:03:55;0.00;0.00;0.62;0.00;0.00;0.62;2.80;1.77;;;21.00;25.80;;;;;;2252229;61;20490;-60
2024/01/05 00:06:40;0.00;0.00;0.62;0.00;0.00;0.62;2.30;1.70;;;20.90;25.80;;;;;;2252886;61;20771;-58
2024/01/05 00:09:25;0.00;0.00;0.62;0.00;0.00;0.62;2.37;1.20;;;20.90;25.80;;;;;;2253061;61;20828;-57
2024/01/05 00:12:11;0.00;0.00;0.62;0.00;0.00;0.62;2.90;1.63;;;20.90;25.70;;;;;;2251900;61;20382;-57
2024/01/05 00:14:55;0.00;0.00;0.62;0.00;0.00;0.62;1.80;1.40;;;20.90;25.70;;;;;;2252866;61;20401;-59
2024/01/05 00:17:40;0.00;0.00;0.62;0.00;0.00;0.62;2.37;1.83;;;20.90;25.70;;;;;;2252866;61;21136;-55
2024/01/05 00:20:25;0.00;0.00;0.62;0.00;0.00;0.62;2.00;1.43;;;20.90;25.80;;;;;;2252312;61;20470;-57
2024/01/05 00:23:09;0.00;0.00;0.62;0.00;0.00;0.62;1.90;1.50;;;20.90;25.70;;;;;;2252541;61;20371;-60
2024/01/05 00:25:55;0.00;0.00;0.62;0.00;0.00;0.62;2.47;1.63;;;20.90;25.70;;;;;;2252431;61;20371;-58
2024/01/05 00:28:41;0.00;0.00;0.62;0.00;0.00;0.62;2.20;1.47;;;20.90;25.70;;;;;;2252725;61;20884;-57
2024/01/05 00:31:26;0.00;0.00;0.62;0.00;0.00;0.62;3.13;1.70;;;20.90;25.70;;;;;;2252682;61;20486;-56
2024/01/05 00:34:10;0.00;0.00;0.62;0.00;0.00;0.62;2.00;1.33;;;20.90;25.70;;;;;;2252416;61;20405;-57
2024/01/05 00:36:55;0.00;0.00;0.62;0.00;0.00;0.62;2.47;1.90;;;20.90;25.70;;;;;;2252946;61;20363;-57
2024/01/05 00:39:40;0.00;0.00;0.62;0.00;0.00;0.62;1.90;1.50;;;20.90;25.70;;;;;;2252948;61;20482;-55
2024/01/05 00:42:24;0.00;0.00;0.62;0.00;0.00;0.62;1.97;1.50;;;20.90;25.70;;;;;;2253246;61;20887;-59
2024/01/05 00:45:10;0.00;0.00;0.62;0.00;0.00;0.62;2.50;1.60;;;20.90;25.70;;;;;;2253614;61;20367;-58
2024/01/05 00:47:55;0.00;0.00;0.62;0.00;0.00;0.62;2.17;1.57;;;20.90;25.70;;;;;;2253512;61;20421;-58
2024/01/05 00:50:39;0.00;0.00;0.62;0.00;0.00;0.62;2.67;1.50;;;20.80;25.70;;;;;;2253456;61;20398;-55
2024/01/05 00:53:24;0.00;0.00;0.62;0.00;0.00;0.62;2.20;1.80;;;20.90;25.80;;;;;;2253120;61;20664;-59
2024/01/05 00:56:08;0.00;0.00;0.62;0.00;0.00;0.62;2.30;1.60;;;20.80;26.20;;;;;;2253265;61;20454;-56
2024/01/05 00:58:53;0.00;0.00;0.62;0.00;0.00;0.62;2.50;1.50;;;20.90;25.70;;;;;;2253603;61;20394;-56
2024/01/05 01:01:39;0.00;0.00;0.62;0.00;0.00;0.62;2.50;1.70;;;20.90;25.80;;;;;;2253240;61;20841;-55
2024/01/05 01:04:24;0.00;0.00;0.62;0.00;0.00;0.62;2.67;1.70;;;20.80;25.60;;;;;;2253236;61;20374;-54
2024/01/05 01:07:08;0.00;0.00;0.62;0.00;0.00;0.62;2.17;1.53;;;20.90;25.70;;;;;;2253435;61;20370;-56
2024/01/05 01:09:53;0.00;0.00;0.62;0.00;0.00;0.62;2.40;1.47;;;20.90;25.70;;;;;;2253438;61;20443;-58
2024/01/05 01:12:37;0.00;0.00;0.62;0.00;0.00;0.62;3.07;1.53;;;20.90;25.70;;;;;;2253188;61;20817;-59
2024/01/05 01:15:22;0.00;0.00;0.62;0.00;0.00;0.62;2.13;1.33;;;20.90;25.70;;;;;;2253731;61;20788;-53
2024/01/05 01:18:08;0.00;0.00;0.62;0.00;0.00;0.62;1.77;1.40;;;20.90;25.70;;;;;;2252918;61;20466;-60
2024/01/05 01:20:52;0.00;0.00;0.62;0.00;0.00;0.62;1.90;1.33;;;20.90;25.70;;;;;;2253578;61;20387;-57
2024/01/05 01:23:37;0.00;0.00;0.62;0.00;0.00;0.62;2.13;1.50;;;20.80;25.60;;;;;;2253108;61;20899;-57
2024/01/05 01:26:22;0.00;0.00;0.62;0.00;0.00;0.62;2.17;1.70;;;20.80;25.60;;;;;;2253355;61;20370;-54
2024/01/05 01:29:08;0.00;0.00;0.62;0.00;0.00;0.62;2.67;1.63;;;20.80;25.60;;;;;;2253420;61;20355;-57
2024/01/05 01:31:53;0.00;0.00;0.62;0.00;0.00;0.62;2.00;1.70;;;20.80;25.70;;;;;;2253178;61;20418;-57
2024/01/05 01:34:39;0.00;0.00;0.62;0.00;0.00;0.62;2.50;1.20;;;20.80;25.70;;;;;;2253445;61;20390;-56
2024/01/05 01:37:24;0.00;0.00;0.62;0.00;0.00;0.62;3.67;2.03;;;20.80;25.70;;;;;;2253581;61;20658;-58
2024/01/05 01:40:10;0.00;0.00;0.62;0.00;0.00;0.62;1.90;1.40;;;20.80;25.70;;;;;;2253065;61;20395;-55
2024/01/05 01:42:55;0.00;0.00;0.62;0.00;0.00;0.62;2.30;1.50;;;20.80;25.70;;;;;;2252643;61;20466;-57
2024/01/05 01:45:40;0.00;0.00;0.62;0.00;0.00;0.62;2.47;1.37;;;20.80;25.60;;;;;;2253411;61;20421;-57
2024/01/05 01:48:25;0.00;0.00;0.62;0.00;0.00;0.62;3.17;1.80;;;20.80;25.60;;;;;;2253115;61;20453;-61
2024/01/05 01:51:11;0.00;0.00;0.62;0.00;0.00;0.62;2.10;1.40;;;20.80;25.70;;;;;;2253083;61;20394;-58
2024/01/05 01:53:56;0.00;0.00;0.62;0.00;0.00;0.62;2.23;1.37;;;20.80;25.60;;;;;;2253040;61;20843;-58
2024/01/05 01:56:43;0.00;0.00;0.62;0.00;0.00;0.62;2.47;1.60;;;20.80;25.60;;;;;;2253159;61;20421;-57
2024/01/05 01:59:28;0.00;0.00;0.62;0.00;0.00;0.62;2.20;1.60;;;20.80;25.60;;;;;;2253391;61;20402;-56
2024/01/05 02:02:14;0.00;0.00;0.62;0.00;0.00;0.62;2.47;1.50;;;20.80;25.60;;;;;;2252413;61;20362;-57
2024/01/05 02:04:59;0.00;0.00;0.62;0.00;0.00;0.62;2.13;1.57;;;20.80;25.60;;;;;;2253290;61;20390;-55
2024/01/05 02:07:45;0.00;0.00;0.62;0.00;0.00;0.62;3.10;1.53;;;20.80;25.60;;;;;;2253243;61;20779;-60
2024/01/05 02:10:30;0.00;0.00;0.62;0.00;0.00;0.62;2.83;1.60;;;20.80;25.60;;;;;;2252881;61;20398;-58
2024/01/05 02:13:15;0.00;0.00;0.62;0.00;0.00;0.62;1.80;1.33;;;20.80;25.60;;;;;;2252769;61;20451;-57
2024/01/05 02:16:00;0.00;0.00;0.62;0.00;0.00;0.62;2.37;1.47;;;20.80;25.60;;;;;;2253101;61;20405;-54
2024/01/05 02:18:51;0.00;0.00;0.62;0.00;0.00;0.62;1.90;1.10;;;20.80;25.60;;;;;;2252598;61;20486;-58
2024/01/05 02:21:40;0.00;0.00;0.62;0.00;0.00;0.62;2.40;1.63;;;20.80;25.60;;;;;;2252718;61;20449;-59
2024/01/05 02:24:26;0.00;0.00;0.62;0.00;0.00;0.62;4.30;1.30;;;20.80;25.60;;;;;;2252467;61;20487;-54
2024/01/05 02:27:10;0.00;0.00;0.62;0.00;0.00;0.62;1.90;1.33;;;20.80;25.60;;;;;;2252443;61;20430;-55
2024/01/05 02:29:58;0.00;0.00;0.62;0.00;0.00;0.62;2.40;1.50;;;20.80;25.60;;;;;;2252469;55;20395;-59
2024/01/05 02:32:42;0.00;0.00;0.62;0.00;0.00;0.62;2.50;1.53;;;20.80;25.60;;;;;;2251868;61;20446;-55
2024/01/05 02:35:27;0.00;0.00;0.62;0.00;0.00;0.62;2.07;1.43;;;20.80;25.60;;;;;;2253096;61;20819;-56
2024/01/05 02:38:11;0.00;0.00;0.62;0.00;0.00;0.62;1.83;1.37;;;20.80;25.60;;;;;;2253088;61;20449;-57
2024/01/05 02:40:59;0.00;0.00;0.62;0.00;0.00;0.62;2.87;1.43;;;20.80;25.60;;;;;;2250647;61;20380;-55
2024/01/05 02:43:44;0.00;0.00;0.62;0.00;0.00;0.62;1.67;1.20;;;20.80;25.60;;;;;;2248761;61;20784;-56
2024/01/05 02:46:28;0.00;0.00;0.62;0.00;0.00;0.62;2.30;1.50;;;20.80;25.60;;;;;;2248430;61;20380;-56
2024/01/05 02:49:14;0.00;0.00;0.62;0.00;0.00;0.62;1.73;1.40;;;20.80;25.60;;;;;;2249026;61;20367;-53
2024/01/05 02:51:59;0.00;0.00;0.62;0.00;0.00;0.62;2.43;1.30;;;20.70;25.50;;;;;;2248338;61;20908;-57
2024/01/05 02:54:44;0.00;0.00;0.62;0.00;0.00;0.62;2.67;1.63;;;20.70;25.50;;;;;;2248680;61;20400;-58
2024/01/05 02:57:30;0.00;0.00;0.62;0.00;0.00;0.62;2.30;1.50;;;20.80;25.60;;;;;;2248963;61;20363;-55
2024/01/05 03:00:15;0.00;0.00;0.62;0.00;0.00;0.62;2.37;1.43;;;20.70;25.50;;;;;;2248713;61;20938;-58
2024/01/05 03:03:00;0.00;0.00;0.62;0.00;0.00;0.62;1.60;1.07;;;20.80;25.60;;;;;;2248165;61;20422;-54
2024/01/05 03:05:44;0.00;0.00;0.62;0.00;0.00;0.62;1.87;1.20;;;20.80;25.60;;;;;;2248978;61;20601;-53
2024/01/05 03:08:29;0.00;0.00;0.62;0.00;0.00;0.62;2.67;2.07;;;20.80;25.60;;;;;;2248810;61;20768;-57
2024/01/05 03:11:13;0.00;0.00;0.62;0.00;0.00;0.62;4.50;3.20;;;20.80;25.60;;;;;;2251068;61;20380;-56
2024/01/05 03:13:59;0.00;0.00;0.62;0.00;0.00;0.62;5.87;3.57;;;20.80;25.60;;;;;;2248585;61;20371;-59
2024/01/05 03:16:44;0.00;0.00;0.62;0.00;0.00;0.62;5.30;4.20;;;20.80;25.60;;;;;;2248459;61;20498;-56
2024/01/05 03:19:28;0.00;0.00;0.62;0.00;0.00;0.62;7.30;5.37;;;20.80;25.60;;;;;;2248693;61;20430;-58
2024/01/05 03:22:13;0.00;0.00;0.62;0.00;0.00;0.62;9.07;6.53;;;20.80;25.60;;;;;;2248369;61;20422;-57
2024/01/05 03:24:57;0.00;0.00;0.62;0.00;0.00;0.62;9.13;6.90;;;20.80;25.60;;;;;;2248365;61;20423;-57
2024/01/05 03:27:42;0.00;0.00;0.62;0.00;0.00;0.62;10.90;7.20;;;20.80;25.60;;;;;;2248872;61;20415;-56
2024/01/05 03:30:27;0.00;0.00;0.62;0.00;0.00;0.62;10.97;7.90;;;20.80;25.60;;;;;;2248551;61;20604;-58
2024/01/05 03:33:12;0.00;0.00;0.62;0.00;0.00;0.62;12.00;8.37;;;20.80;25.60;;;;;;2248359;61;20927;-56
2024/01/05 03:35:56;0.00;0.00;0.62;0.00;0.00;0.62;13.07;9.20;;;20.80;25.60;;;;;;2248544;61;20370;-57
2024/01/05 03:38:43;0.00;0.00;0.62;0.00;0.00;0.62;16.40;10.60;;;20.80;25.60;;;;;;2248247;61;21063;-56
2024/01/05 03:41:28;0.00;0.00;0.62;0.00;0.00;0.62;16.10;11.40;;;20.80;25.60;;;;;;2248588;61;20471;-57
2024/01/05 03:44:20;0.00;0.00;0.62;0.00;0.00;0.62;14.60;11.40;;;20.80;25.70;;;;;;2248646;61;20372;-54
2024/01/05 03:47:06;0.00;0.00;0.62;0.00;0.00;0.62;14.90;11.80;;;20.80;25.70;;;;;;2248368;61;20367;-58
2024/01/05 03:49:51;0.00;0.00;0.62;0.00;0.00;0.62;16.63;12.10;;;20.70;25.60;;;;;;2248624;61;20468;-56
2024/01/05 03:52:36;0.00;0.00;0.62;0.00;0.00;0.62;15.37;10.37;;;20.80;25.70;;;;;;2248268;61;20418;-57
2024/01/05 03:55:20;0.00;0.00;0.62;0.00;0.00;0.62;15.50;12.03;;;20.80;25.70;;;;;;2248864;61;20375;-55
2024/01/05 03:58:06;0.00;0.00;0.62;0.00;0.00;0.62;13.90;11.30;;;20.80;25.70;;;;;;2248571;61;20387;-57
2024/01/05 04:00:51;0.00;0.00;0.62;0.00;0.00;0.62;14.73;11.30;;;20.70;25.60;;;;;;2248219;61;20404;-57
2024/01/05 04:03:37;0.00;0.00;0.62;0.00;0.00;0.62;14.27;10.70;;;20.70;25.50;;;;;;2248488;61;20368;-53
2024/01/05 04:06:21;0.00;0.00;0.62;0.00;0.00;0.62;15.10;11.40;;;20.80;25.60;;;;;;2248795;61;20415;-57
2024/01/05 04:09:10;0.00;0.00;0.62;0.00;0.00;0.62;16.37;11.67;;;20.80;25.60;;;;;;2248279;61;20411;-54
2024/01/05 04:11:55;0.00;0.00;0.62;0.00;0.00;0.62;15.50;10.10;;;20.80;25.60;;;;;;2248298;61;20382;-58
2024/01/05 04:14:40;0.00;0.00;0.62;0.00;0.00;0.62;12.20;8.90;;;20.80;25.60;;;;;;2248953;61;20931;-58
2024/01/05 04:17:25;0.00;0.00;0.62;0.00;0.00;0.62;14.50;9.70;;;20.70;25.50;;;;;;2249360;61;20398;-57
2024/01/05 04:20:11;0.00;0.00;0.62;0.00;0.00;0.62;13.23;9.87;;;20.70;25.50;;;;;;2249360;61;20450;-59
2024/01/05 04:22:56;0.00;0.00;0.62;0.00;0.00;0.62;12.33;9.00;;;20.70;25.50;;;;;;2248410;61;20367;-58
2024/01/05 04:25:41;0.00;0.00;0.62;0.00;0.00;0.62;11.97;8.97;;;20.70;25.50;;;;;;2249173;61;20379;-56
2024/01/05 04:28:25;0.00;0.00;0.62;0.00;0.00;0.62;11.93;8.80;;;20.70;25.50;;;;;;2249355;61;20371;-58
2024/01/05 04:31:10;0.00;0.00;0.62;0.00;0.00;0.62;11.07;8.70;;;20.70;25.50;;;;;;2248090;61;20391;-60
2024/01/05 04:33:55;0.00;0.00;0.62;0.00;0.00;0.62;11.70;7.90;;;20.70;25.50;;;;;;2248992;61;20824;-58
2024/01/05 04:36:41;0.00;0.00;0.62;0.00;0.00;0.62;9.20;8.07;;;20.70;25.50;;;;;;2249341;61;21041;-55
2024/01/05 04:39:26;0.00;0.00;0.62;0.00;0.00;0.62;11.20;8.87;;;20.70;25.50;;;;;;2249131;61;20411;-57
2024/01/05 04:42:11;0.00;0.00;0.62;0.00;0.00;0.62;12.67;7.93;;;20.70;25.50;;;;;;2248936;61;20388;-57
2024/01/05 04:44:56;0.00;0.00;0.62;0.00;0.00;0.62;10.33;7.70;;;20.70;25.50;;;;;;2249056;61;20395;-58
2024/01/05 04:47:40;0.00;0.00;0.62;0.00;0.00;0.62;9.77;6.90;;;20.70;25.50;;;;;;2249310;61;20844;-56
2024/01/05 04:50:25;0.00;0.00;0.62;0.00;0.00;0.62;8.93;6.97;;;20.70;25.60;;;;;;2248863;61;20821;-58
2024/01/05 04:53:11;0.00;0.00;0.62;0.00;0.00;0.62;8.97;6.80;;;20.70;25.60;;;;;;2248643;61;20359;-59
2024/01/05 04:55:55;0.00;0.00;0.62;0.00;0.00;0.62;10.37;6.73;;;20.70;25.50;;;;;;2249356;61;20936;-55
2024/01/05 04:58:40;0.00;0.00;0.62;0.00;0.00;0.62;7.60;6.10;;;20.70;25.50;;;;;;2249252;61;20924;-60
2024/01/05 05:01:24;0.00;0.00;0.62;0.00;0.00;0.62;10.13;7.00;;;20.70;25.50;;;;;;2249032;61;20415;-59
2024/01/05 05:04:09;0.00;0.00;0.62;0.00;0.00;0.62;8.07;6.00;;;20.70;25.50;;;;;;2249428;61;20368;-58
2024/01/05 05:06:54;0.00;0.00;0.62;0.00;0.00;0.62;9.20;6.80;;;20.70;25.50;;;;;;2249173;61;20896;-59
2024/01/05 05:09:40;0.00;0.00;0.62;0.00;0.00;0.62;7.90;5.80;;;20.70;25.50;;;;;;2249382;61;20880;-56
2024/01/05 05:12:25;0.00;0.00;0.62;0.00;0.00;0.62;11.17;7.80;;;20.70;25.50;;;;;;2249038;61;20379;-57
2024/01/05 05:15:10;0.00;0.00;0.62;0.00;0.00;0.62;13.30;8.10;;;20.70;25.50;;;;;;2249224;61;20367;-58
2024/01/05 05:17:55;0.00;0.00;0.62;0.00;0.00;0.62;10.20;8.50;;;20.70;25.50;;;;;;2249328;61;20375;-63
2024/01/05 05:20:40;0.00;0.00;0.62;0.00;0.00;0.62;13.80;10.00;;;20.70;25.50;;;;;;2249247;61;20439;-60
2024/01/05 05:23:24;0.00;0.00;0.62;0.00;0.00;0.62;10.90;9.23;;;20.70;25.50;;;;;;2248605;61;20939;-56
2024/01/05 05:26:11;0.00;0.00;0.62;0.00;0.00;0.62;12.77;8.90;;;20.70;25.50;;;;;;2249108;61;20372;-53
2024/01/05 05:28:55;0.00;0.00;0.62;0.00;0.00;0.62;12.50;10.00;;;20.70;25.50;;;;;;2249204;61;20394;-59
2024/01/05 05:31:40;0.00;0.00;0.62;0.00;0.00;0.62;10.73;7.97;;;20.70;25.50;;;;;;2248741;61;20451;-59
2024/01/05 05:34:24;0.00;0.00;0.62;0.00;0.00;0.62;12.30;8.60;;;20.70;25.50;;;;;;2249278;61;20376;-57
2024/01/05 05:37:09;0.00;0.00;0.62;0.00;0.00;0.62;11.40;8.60;;;20.70;25.50;;;;;;2248950;61;20418;-57
2024/01/05 05:39:53;0.00;0.00;0.62;0.00;0.00;0.62;10.67;8.50;;;20.70;25.50;;;;;;2249193;61;20796;-56
2024/01/05 05:42:39;0.00;0.00;0.62;0.00;0.00;0.62;10.20;7.70;;;20.70;25.60;;;;;;2248736;61;20371;-57
2024/01/05 05:45:24;0.00;0.00;0.62;0.00;0.00;0.62;10.10;7.83;;;20.70;25.50;;;;;;2249055;61;20900;-59
2024/01/05 05:48:09;0.00;0.00;0.62;0.00;0.00;0.62;10.60;7.60;;;20.70;26.10;;;;;;2249404;61;20367;-58
2024/01/05 05:50:53;0.00;0.00;0.62;0.00;0.00;0.62;10.00;8.00;;;20.60;25.50;;;;;;2249250;61;20927;-57
2024/01/05 05:53:38;0.00;0.00;0.62;0.00;0.00;0.62;9.97;7.17;;;20.70;25.50;;;;;;2248675;61;20464;-58
2024/01/05 05:56:22;0.00;0.00;0.62;0.00;0.00;0.62;10.17;7.30;;;20.70;25.50;;;;;;2249258;61;20403;-58
2024/01/05 05:59:08;0.00;0.00;0.62;0.00;0.00;0.62;9.80;7.57;;;20.70;25.50;;;;;;2248758;61;20912;-55
2024/01/05 06:01:54;0.00;0.00;0.62;0.00;0.00;0.62;9.73;7.30;;;20.70;25.60;;;;;;2248856;61;20438;-55
2024/01/05 06:04:39;0.00;0.00;0.62;0.00;0.00;0.62;6.63;5.90;;;20.70;25.50;;;;;;2249289;61;20892;-57
2024/01/05 06:07:24;0.00;0.00;0.62;0.00;0.00;0.62;13.97;8.33;;;20.70;25.60;;;;;;2248821;61;20360;-59
2024/01/05 06:10:08;0.00;0.00;0.62;0.00;0.00;0.62;8.50;6.03;;;20.70;25.60;;;;;;2248979;61;20415;-57
2024/01/05 06:12:53;0.00;0.00;0.62;0.00;0.00;0.62;9.40;7.00;;;20.70;25.60;;;;;;2248844;61;20367;-64
2024/01/05 06:15:39;0.00;0.00;0.62;0.00;0.00;0.62;8.43;6.40;;;20.70;25.50;;;;;;2248952;61;20371;-59
2024/01/05 06:18:24;0.00;0.00;0.62;0.00;0.00;0.62;7.50;5.90;;;20.70;25.50;;;;;;2249433;61;20383;-57
2024/01/05 06:21:09;0.00;0.00;0.62;0.00;0.00;0.62;8.80;6.30;;;20.70;25.60;;;;;;2251000;61;20423;-59
2024/01/05 06:23:53;0.00;0.00;0.62;0.00;0.00;0.62;7.23;5.50;;;20.70;25.50;;;;;;2248955;61;20392;-62
2024/01/05 06:26:38;0.00;0.00;0.62;0.00;0.00;0.62;7.57;6.07;;;20.70;25.50;;;;;;2249348;61;20375;-57
2024/01/05 06:29:22;0.00;0.00;0.62;0.00;0.00;0.62;8.20;5.93;;;20.60;25.50;;;;;;2248844;61;20370;-58
2024/01/05 06:32:08;0.00;0.00;0.62;0.00;0.00;0.62;8.70;6.63;;;20.70;25.50;;;;;;2248806;61;20395;-55
2024/01/05 06:34:53;0.00;0.00;0.62;0.00;0.00;0.62;8.70;7.00;;;20.60;25.50;;;;;;2249497;61;20431;-56
2024/01/05 06:37:38;0.00;0.00;0.62;0.00;0.00;0.62;9.80;6.67;;;20.60;25.50;;;;;;2248962;61;20376;-56
2024/01/05 06:40:22;0.00;0.00;0.62;0.00;0.00;0.62;10.93;7.87;;;20.60;25.50;;;;;;2249026;61;20500;-52
2024/01/05 06:43:07;0.00;0.00;0.62;0.00;0.00;0.62;10.17;8.03;;;20.60;25.50;;;;;;2248307;61;20367;-58
2024/01/05 06:45:51;0.00;0.00;0.62;0.00;0.00;0.62;10.60;8.03;;;20.60;25.50;;;;;;2249330;61;20412;-58
2024/01/05 06:48:37;0.00;0.00;0.62;0.00;0.00;0.62;8.93;7.80;;;20.60;25.50;;;;;;2249464;61;20902;-55
2024/01/05 06:51:23;0.00;0.00;0.62;0.00;0.00;0.62;10.27;7.07;;;20.60;25.50;;;;;;2248595;61;20915;-57
2024/01/05 06:54:08;0.00;0.00;0.62;0.00;0.00;0.62;10.07;6.90;;;20.60;25.50;;;;;;2249137;61;20387;-57
2024/01/05 06:56:53;0.00;0.00;0.62;0.00;0.00;0.62;8.40;7.27;;;20.60;25.50;;;;;;2249084;61;20368;-55
2024/01/05 06:59:39;0.00;0.00;0.62;0.00;0.00;0.62;11.10;7.43;;;20.60;26.00;;;;;;2248856;61;20443;-57
2024/01/05 07:02:23;0.00;0.00;0.62;0.00;0.00;0.62;8.63;7.27;;;20.60;25.50;;;;;;2248897;61;20769;-56
2024/01/05 07:05:09;0.00;0.00;0.62;0.00;0.00;0.62;9.30;7.43;;;20.60;25.50;;;;;;2251387;61;20368;-60
2024/01/05 07:07:54;0.00;0.00;0.62;0.00;0.00;0.62;9.00;6.60;;;20.60;25.50;;;;;;2249457;61;20426;-52
2024/01/05 07:10:39;0.00;0.00;0.62;0.00;0.00;0.62;9.23;6.97;;;20.60;25.50;;;;;;2249037;61;20885;-55
2024/01/05 07:13:23;0.00;0.00;0.62;0.00;0.00;0.62;8.87;6.80;;;20.60;25.50;;;;;;2248530;61;20459;-62
2024/01/05 07:16:15;0.00;0.00;0.62;0.00;0.00;0.62;8.23;5.60;;;20.60;25.50;;;;;;2249230;61;20488;-54
2024/01/05 07:19:00;0.00;0.00;0.62;0.00;0.00;0.62;8.37;5.70;;;20.60;25.50;;;;;;2249432;61;20780;-58
2024/01/05 07:21:47;0.00;0.00;0.62;0.00;0.00;0.62;8.50;6.33;;;20.60;25.50;;;;;;2247809;61;20388;-54
2024/01/05 07:24:33;0.00;0.00;0.62;0.00;0.00;0.62;7.00;5.80;;;20.60;25.50;;;;;;2249113;61;20380;-58
2024/01/05 07:27:18;0.00;0.00;0.62;0.00;0.00;0.62;7.27;6.13;;;20.60;25.50;;;;;;2249098;61;20415;-58
2024/01/05 07:30:04;0.00;0.00;0.62;0.00;0.00;0.62;7.37;6.10;;;20.60;25.50;;;;;;2248698;61;21003;-56
2024/01/05 07:32:49;0.00;0.00;0.62;0.00;0.00;0.62;8.47;6.20;;;20.60;25.50;;;;;;2248712;61;20922;-56
2024/01/05 07:35:34;0.00;0.00;0.62;0.00;0.00;0.62;9.03;5.50;;;20.60;25.50;;;;;;2248690;61;20968;-56
2024/01/05 07:38:20;0.00;0.00;0.62;0.00;0.00;0.62;8.13;5.93;;;20.60;25.50;;;;;;2249116;61;20515;-56
2024/01/05 07:41:05;0.00;0.00;0.62;0.00;0.00;0.62;7.70;6.47;;;20.60;25.50;;;;;;2248930;61;20411;-55
2024/01/05 07:43:49;0.00;0.00;0.62;0.00;0.00;0.62;8.63;6.90;;;20.60;25.50;;;;;;2248570;61;20436;-57
2024/01/05 07:46:40;0.00;0.00;0.62;0.00;0.00;0.62;7.77;5.50;;;20.60;25.50;;;;;;2249228;61;20359;-56
2024/01/05 07:49:25;0.00;0.00;0.62;0.00;0.00;0.62;8.53;5.80;;;20.60;25.50;;;;;;2248997;61;20367;-57
2024/01/05 07:52:10;0.00;0.00;0.62;0.00;0.00;0.62;8.63;5.40;;;20.60;25.50;;;;;;2248633;61;20396;-59
2024/01/05 07:54:56;0.00;0.00;0.62;0.00;0.00;0.62;6.97;5.23;;;20.60;25.50;;;;;;2248734;61;20371;-58
2024/01/05 07:57:40;0.00;0.00;0.62;0.00;0.00;0.62;7.53;5.20;;;20.60;25.50;;;;;;2248586;61;20367;-60
2024/01/05 08:00:25;0.00;0.00;0.62;0.00;0.00;0.62;6.93;5.40;;;20.60;25.50;;;;;;2248714;61;20855;-60
2024/01/05 08:03:10;0.00;0.00;0.62;0.00;0.00;0.62;6.47;4.83;;;20.60;25.50;;;;;;2248782;61;20476;-58
2024/01/05 08:05:55;0.00;0.00;0.62;0.00;0.00;0.62;6.53;4.97;;;20.60;25.50;;;;;;2248603;61;20359;-56
2024/01/05 08:08:40;0.00;0.00;0.62;0.00;0.00;0.62;5.80;4.50;;;20.60;25.50;;;;;;2249015;61;20438;-57
2024/01/05 08:11:26;0.00;0.00;0.62;0.00;0.00;0.62;6.70;4.80;;;20.60;25.50;;;;;;2248946;61;20387;-60
2024/01/05 08:14:12;0.00;0.00;0.62;0.00;0.00;0.62;5.10;4.60;;;20.60;25.50;;;;;;2248927;61;21219;-58
2024/01/05 08:16:56;0.00;0.00;0.62;0.00;0.00;0.62;4.73;3.63;;;20.60;25.50;;;;;;2248381;61;20415;-54
2024/01/05 08:19:41;0.00;0.00;0.62;0.00;0.00;0.62;5.37;4.10;;;20.60;25.50;;;;;;2248484;61;20418;-56
2024/01/05 08:22:26;0.00;0.00;0.62;0.00;0.00;0.62;4.83;3.80;;;20.60;25.50;;;;;;2248423;61;20402;-57
2024/01/05 08:25:12;0.00;0.00;0.62;0.00;0.00;0.62;5.17;3.97;;;20.60;25.60;;;;;;2248985;61;20747;-56
2024/01/05 08:27:58;0.00;0.00;0.62;0.00;0.00;0.62;4.83;3.97;;;20.60;25.60;;;;;;2248710;61;20371;-59
2024/01/05 08:30:44;0.00;0.00;0.62;0.00;0.00;0.62;5.50;4.03;;;20.60;25.60;;;;;;2248655;61;20387;-59
2024/01/05 08:33:28;0.00;0.00;0.62;0.00;0.00;0.62;4.70;4.13;;;20.60;25.60;;;;;;2248346;61;20371;-58
2024/01/05 08:36:13;0.00;0.00;0.62;0.00;0.00;0.62;4.83;3.80;;;20.60;25.60;;;;;;2248542;61;20396;-55
2024/01/05 08:38:57;0.00;0.00;0.62;0.00;0.00;0.62;4.30;3.60;;;20.60;25.60;;;;;;2248847;61;20367;-57
2024/01/05 08:41:42;0.00;0.00;0.62;0.00;0.00;0.62;4.53;3.73;;;20.60;25.60;;;;;;2247521;61;20564;-59
2024/01/05 08:44:29;0.00;0.00;0.62;0.00;0.00;0.62;5.00;4.13;;;20.60;25.60;;;;;;2249033;61;20410;-57
2024/01/05 08:47:14;0.00;0.00;0.62;0.00;0.00;0.62;5.33;3.60;;;20.60;25.60;;;;;;2248518;61;20367;-56
2024/01/05 08:50:00;0.00;0.00;0.62;0.00;0.00;0.62;4.90;3.37;;;20.60;25.60;;;;;;2253657;55;20360;-56
2024/01/05 08:52:45;0.00;0.00;0.62;0.00;0.00;0.62;5.33;3.77;;;20.60;25.60;;;;;;2253711;61;20518;-59
2024/01/05 08:55:30;0.00;0.00;0.62;0.00;0.00;0.62;4.53;3.50;;;20.60;25.60;;;;;;2252647;61;20367;-53
2024/01/05 08:58:15;0.00;0.00;0.62;0.00;0.00;0.62;5.13;3.53;;;20.60;25.60;;;;;;2252165;61;20490;-57
2024/01/05 09:01:01;0.00;0.00;0.62;0.00;0.00;0.62;4.03;3.30;;;20.60;25.70;;;;;;2250421;61;20391;-55
2024/01/05 09:03:46;0.00;0.00;0.62;0.00;0.00;0.62;4.30;3.40;;;20.60;25.60;;;;;;2248544;61;20860;-57
2024/01/05 09:06:32;0.00;0.00;0.62;0.00;0.00;0.62;5.23;3.80;;;20.60;25.60;;;;;;2249177;61;20391;-55
2024/01/05 09:09:17;0.00;0.00;0.62;0.00;0.00;0.62;4.40;3.30;;;20.60;25.60;;;;;;2249180;61;20352;-56
2024/01/05 09:12:02;0.00;0.00;0.62;0.00;0.00;0.62;5.63;3.30;;;20.60;25.60;;;;;;2247774;61;20439;-53
2024/01/05 09:14:47;0.00;0.00;0.62;0.00;0.00;0.62;5.03;3.53;;;20.60;25.60;;;;;;2249364;61;20767;-54
2024/01/05 09:17:33;0.00;0.00;0.62;0.00;0.00;0.62;4.57;3.70;;;20.60;25.70;;;;;;2249094;61;20364;-57
2024/01/05 09:20:18;0.00;0.00;0.62;0.00;0.00;0.62;4.77;3.60;;;20.60;25.60;;;;;;2248905;61;20398;-53
2024/01/05 09:23:03;0.00;0.00;0.62;0.00;0.00;0.62;4.50;3.33;;;20.60;25.70;;;;;;2248811;61;20371;-58
2024/01/05 09:25:47;0.00;0.00;0.62;0.00;0.00;0.62;4.50;3.43;;;20.60;25.60;;;;;;2248869;61;20912;-53
2024/01/05 09:28:33;0.00;0.00;0.62;0.00;0.00;0.62;4.87;3.53;;;20.60;25.70;;;;;;2249219;61;20448;-58
2024/01/05 09:31:17;0.00;0.00;0.62;0.00;0.00;0.62;5.73;3.63;;;20.60;25.60;;;;;;2249024;61;20475;-56
2024/01/05 09:34:03;0.00;0.00;0.62;0.00;0.00;0.62;5.27;3.50;;;20.60;25.60;;;;;;2248507;61;20885;-53
2024/01/05 09:36:48;0.00;0.00;0.62;0.00;0.00;0.62;4.67;3.20;;;20.60;25.60;;;;;;2249057;61;20410;-57
2024/01/05 09:39:33;0.00;0.00;0.62;0.00;0.00;0.62;3.80;2.83;;;20.60;25.60;;;;;;2248831;61;20482;-55
2024/01/05 09:42:18;0.00;0.00;0.62;0.00;0.00;0.62;4.47;3.13;;;20.60;25.60;;;;;;2248278;61;20367;-56
2024/01/05 09:45:03;0.00;0.00;0.62;0.00;0.00;0.62;4.70;3.33;;;20.60;25.70;;;;;;2248989;61;20420;-60
2024/01/05 09:47:49;0.00;0.00;0.62;0.00;0.00;0.62;4.00;3.50;;;20.60;25.60;;;;;;2249180;61;20366;-55
2024/01/05 09:50:36;0.00;0.00;0.62;0.00;0.00;0.62;4.57;2.73;;;20.60;25.60;;;;;;2248822;61;20395;-62
2024/01/05 09:53:20;0.00;0.00;0.62;0.00;0.00;0.62;4.63;3.00;;;20.60;25.60;;;;;;2248733;61;20372;-56
2024/01/05 09:56:06;0.00;0.00;0.62;0.00;0.00;0.62;4.30;3.53;;;20.60;25.60;;;;;;2248244;61;20372;-59
2024/01/05 09:58:51;0.00;0.00;0.62;0.00;0.00;0.62;4.00;3.43;;;20.60;25.60;;;;;;2249195;61;20807;-55
2024/01/05 10:01:39;0.00;0.00;0.62;0.00;0.00;0.62;4.00;3.03;;;20.60;25.60;;;;;;2248529;61;20411;-57
2024/01/05 10:04:24;0.00;0.00;0.62;0.00;0.00;0.62;4.17;3.00;;;20.60;25.70;;;;;;2248877;61;20380;-54
2024/01/05 10:07:10;0.00;0.00;0.62;0.00;0.00;0.62;4.60;3.30;;;20.60;25.60;;;;;;2249166;61;20380;-56
2024/01/05 10:09:55;0.00;0.00;0.62;0.00;0.00;0.62;4.53;3.33;;;20.60;25.60;;;;;;2248752;61;21008;-58
2024/01/05 10:12:40;0.00;0.00;0.62;0.00;0.00;0.62;3.57;2.87;;;20.60;25.70;;;;;;2248569;61;20368;-57
2024/01/05 10:15:25;0.00;0.00;0.62;0.00;0.00;0.62;4.33;3.30;;;20.60;25.60;;;;;;2249164;61;20364;-55
2024/01/05 10:18:16;0.00;0.00;0.62;0.00;0.00;0.62;3.60;3.10;;;20.60;25.60;;;;;;2248633;61;20391;-54
2024/01/05 10:21:09;0.00;0.00;0.62;0.00;0.00;0.62;3.90;3.17;;;20.60;25.60;;;;;;2249176;61;20519;-60
2024/01/05 10:23:57;0.00;0.00;0.62;0.00;0.00;0.62;4.80;3.63;;;20.60;25.70;;;;;;2248928;61;20364;-54
2024/01/05 10:26:42;0.00;0.00;0.62;0.00;0.00;0.62;4.37;2.90;;;20.60;25.60;;;;;;2249049;61;20368;-57
2024/01/05 10:29:26;0.00;0.00;0.62;0.00;0.00;0.62;4.97;3.07;;;20.60;25.60;;;;;;2249405;61;20368;-57
2024/01/05 10:32:15;0.00;0.00;0.62;0.00;0.00;0.62;4.20;3.10;;;20.60;25.60;;;;;;2248961;61;20395;-56
2024/01/05 10:35:02;0.00;0.00;0.62;0.00;0.00;0.62;4.60;3.60;;;20.60;25.60;;;;;;2249556;61;20379;-55
2024/01/05 10:38:04;0.00;0.00;0.62;0.00;0.00;0.62;5.13;3.50;;;20.60;25.60;;;;;;2249296;61;20454;-57
2024/01/05 10:40:50;0.00;0.00;0.62;0.00;0.00;0.62;4.93;3.53;;;20.60;25.60;;;;;;2259408;40;20795;-55
2024/01/05 10:43:37;0.00;0.00;0.62;0.00;0.00;0.62;4.10;3.30;;;20.60;25.60;;;;;;2256482;61;20501;-57
2024/01/05 10:46:23;0.00;0.00;0.62;0.00;0.00;0.62;4.37;3.30;;;20.60;25.60;;;;;;2257143;61;20400;-59
2024/01/05 10:49:08;0.00;0.00;0.62;0.00;0.00;0.62;5.30;3.60;;;20.60;25.60;;;;;;2256843;61;20782;-54
2024/01/05 10:51:53;0.00;0.00;0.62;0.00;0.00;0.62;4.87;3.37;;;20.60;25.60;;;;;;2253072;61;20973;-60